createdAt,value
2022-12-09T06:01:11.354Z,0.72
2022-12-09T06:12:09.571Z,0.50
2022-12-09T06:14:37.094Z,0.45
2022-12-09T06:17:03.941Z,0.40
2022-12-09T06:19:31.815Z,0.33
2022-12-09T06:21:58.978Z,0.30
2022-12-09T06:24:26.361Z,0.28
2022-12-09T06:26:54.407Z,0.24
2022-12-09T06:29:21.888Z,0.21
2022-12-09T06:31:48.810Z,0.18
2022-12-09T06:34:16.482Z,0.15
2022-12-09T06:36:43.563Z,0.10
2022-12-09T06:39:11.366Z,0.05
2022-12-09T06:41:41.369Z,0.03
2022-12-09T06:44:11.009Z,-0.01
2022-12-09T06:46:37.807Z,-0.04
2022-12-09T06:49:05.572Z,-0.07
2022-12-09T06:51:32.643Z,-0.14
2022-12-09T06:53:59.914Z,-0.22
2022-12-09T06:56:27.130Z,-0.28
2022-12-09T06:58:54.763Z,-0.33
2022-12-09T07:01:24.115Z,-0.35
2022-12-09T07:03:55.379Z,-0.35
2022-12-09T07:06:37.318Z,-0.36
2022-12-09T07:09:10.630Z,-0.38
2022-12-09T07:11:37.833Z,-0.41
2022-12-09T07:14:05.313Z,-0.44
2022-12-09T07:16:32.145Z,-0.50
2022-12-09T07:19:00.284Z,-0.57
2022-12-09T07:21:28.358Z,-0.61
2022-12-09T07:23:56.031Z,-0.67
2022-12-09T07:26:22.881Z,-0.72
2022-12-09T07:28:51.191Z,-0.74
2022-12-09T07:31:26.798Z,-0.75
2022-12-09T07:33:56.443Z,-0.80
2022-12-09T07:36:25.832Z,-0.84
2022-12-09T07:38:57.215Z,-0.89
2022-12-09T07:41:24.449Z,-0.91
2022-12-09T07:43:51.775Z,-0.94
2022-12-09T07:46:20.780Z,-0.96
2022-12-09T07:48:49.239Z,-0.98
2022-12-09T07:51:17.205Z,-0.97
2022-12-09T07:53:45.408Z,-0.95
2022-12-09T07:56:17.701Z,-0.92
2022-12-09T07:58:48.001Z,-0.84
2022-12-09T08:01:21.711Z,-0.79
2022-12-09T08:03:50.497Z,-0.75
2022-12-09T08:06:20.481Z,-0.68
2022-12-09T08:08:49.334Z,-0.63
2022-12-09T08:11:24.442Z,-0.59
2022-12-09T08:13:52.461Z,-0.54
2022-12-09T08:16:22.742Z,-0.49
2022-12-09T08:18:51.524Z,-0.42
2022-12-09T08:21:22.111Z,-0.38
2022-12-09T08:23:50.163Z,-0.30
2022-12-09T08:26:20.641Z,-0.25
2022-12-09T08:28:48.548Z,-0.18
2022-12-09T08:31:22.240Z,-0.11
2022-12-09T08:33:49.921Z,-0.05
2022-12-09T08:36:23.088Z,-0.02
2022-12-09T08:38:50.940Z,0.01
2022-12-09T08:41:36.313Z,0.09
2022-12-09T08:44:08.874Z,0.13
2022-12-09T08:46:38.192Z,0.12
2022-12-09T08:49:05.840Z,0.15
2022-12-09T08:51:33.976Z,0.16
2022-12-09T08:54:02.373Z,0.19
2022-12-09T08:56:29.887Z,0.26
2022-12-09T08:58:56.617Z,0.32
2022-12-09T09:01:26.851Z,0.35
2022-12-09T09:03:53.843Z,0.42
2022-12-09T09:06:21.196Z,0.43
2022-12-09T09:08:48.829Z,0.49
2022-12-09T09:11:19.758Z,0.47
2022-12-09T09:13:49.208Z,0.50
2022-12-09T09:16:19.388Z,0.53
2022-12-09T09:18:47.661Z,0.56
2022-12-09T09:21:16.869Z,0.60
2022-12-09T09:23:44.627Z,0.60
2022-12-09T09:26:16.692Z,0.62
2022-12-09T09:28:44.553Z,0.61
2022-12-09T09:31:14.504Z,0.61
2022-12-09T09:33:43.569Z,0.53
2022-12-09T09:36:19.488Z,0.55
2022-12-09T09:38:47.779Z,0.59
2022-12-09T09:41:56.517Z,0.61
2022-12-09T09:44:28.905Z,0.68
2022-12-09T09:46:57.757Z,0.75
2022-12-09T09:49:36.500Z,0.81
2022-12-09T09:52:10.309Z,0.81
2022-12-09T09:54:37.913Z,0.83
2022-12-09T09:57:57.548Z,0.85
2022-12-09T10:00:27.821Z,0.92
2022-12-09T10:03:12.376Z,0.98
2022-12-09T10:06:17.585Z,1.01
2022-12-09T10:09:04.823Z,1.08
2022-12-09T10:11:39.658Z,1.14
2022-12-09T10:14:16.184Z,1.19
2022-12-09T10:17:03.437Z,1.22
2022-12-09T10:19:42.679Z,1.26
2022-12-09T10:22:18.179Z,1.32
2022-12-09T10:24:51.124Z,1.38
2022-12-09T10:27:45.994Z,1.44
2022-12-09T10:30:15.800Z,1.45
2022-12-09T10:32:44.091Z,1.49
2022-12-09T10:35:14.368Z,1.53
2022-12-09T10:37:42.269Z,1.52
2022-12-09T10:40:12.175Z,1.52
2022-12-09T10:43:11.070Z,1.58
2022-12-09T10:46:16.914Z,1.57
2022-12-09T10:48:43.152Z,1.58
2022-12-09T10:51:11.384Z,1.59
2022-12-09T10:54:06.993Z,1.61
2022-12-09T10:56:36.823Z,1.63
2022-12-09T10:59:24.087Z,1.65
2022-12-09T11:02:13.569Z,1.70
2022-12-09T11:04:43.437Z,1.78
2022-12-09T11:07:19.915Z,1.82
2022-12-09T11:09:59.064Z,1.87
2022-12-09T11:12:27.355Z,1.92
2022-12-09T11:15:01.384Z,1.97
2022-12-09T11:17:38.386Z,2.00
2022-12-09T11:20:05.687Z,2.05
2022-12-09T11:22:41.467Z,2.06
2022-12-09T11:25:11.869Z,2.08
2022-12-09T11:27:53.252Z,2.12
2022-12-09T11:30:22.314Z,2.12
2022-12-09T11:33:19.603Z,2.09
2022-12-09T11:35:46.906Z,2.04
2022-12-09T11:38:17.728Z,1.97
2022-12-09T11:41:13.290Z,2.02
2022-12-09T11:43:54.759Z,2.06
2022-12-09T11:46:27.645Z,2.03
2022-12-09T11:49:12.925Z,2.02
2022-12-09T11:51:46.843Z,2.04
2022-12-09T11:54:22.450Z,2.09
2022-12-09T11:56:51.199Z,2.17
2022-12-09T11:59:26.409Z,2.15
2022-12-09T12:02:11.245Z,2.18
2022-12-09T12:05:00.160Z,2.23
2022-12-09T12:22:48.006Z,2.24
2022-12-09T12:25:36.947Z,2.24
2022-12-09T12:28:22.423Z,2.24
2022-12-09T12:31:07.559Z,2.21
2022-12-09T12:34:23.480Z,2.24
2022-12-09T12:36:53.339Z,2.29
2022-12-09T12:39:38.170Z,2.30
2022-12-09T12:42:35.878Z,2.28
2022-12-09T12:45:36.845Z,2.25
2022-12-09T12:48:10.383Z,2.25
2022-12-09T12:50:54.280Z,2.23
2022-12-09T12:53:37.391Z,2.21
2022-12-09T12:56:47.066Z,2.24
2022-12-09T12:59:33.845Z,2.23
2022-12-09T13:02:28.603Z,2.27
2022-12-09T13:05:04.015Z,2.25
2022-12-09T13:07:44.220Z,2.22
2022-12-09T13:10:19.522Z,2.28
2022-12-09T13:12:56.522Z,2.33
2022-12-09T13:15:32.497Z,2.32
2022-12-09T13:18:03.967Z,2.31
2022-12-09T13:20:40.958Z,2.21
2022-12-09T13:23:32.344Z,2.17
2022-12-09T13:26:06.862Z,2.24
2022-12-09T13:28:49.802Z,2.26
2022-12-09T13:31:20.462Z,2.22
2022-12-09T13:34:04.845Z,2.19
2022-12-09T13:36:41.943Z,2.24
2022-12-09T13:39:13.675Z,2.26
2022-12-09T13:42:01.174Z,2.21
2022-12-09T13:44:34.795Z,2.21
2022-12-09T13:47:26.162Z,2.16
2022-12-09T13:49:59.411Z,2.21
2022-12-09T13:52:41.031Z,2.25
2022-12-09T13:55:31.925Z,2.30
2022-12-09T13:58:16.874Z,2.32
2022-12-09T14:01:04.321Z,2.33
2022-12-09T14:03:34.688Z,2.29
2022-12-09T14:06:18.491Z,2.27
2022-12-09T14:08:50.985Z,2.23
2022-12-09T14:11:47.330Z,2.22
2022-12-09T14:14:23.325Z,2.22
2022-12-09T14:16:51.658Z,2.21
2022-12-09T14:19:24.574Z,2.18
2022-12-09T14:22:25.119Z,2.15
2022-12-09T14:24:54.101Z,2.11
2022-12-09T14:27:31.908Z,2.05
2022-12-09T14:30:21.731Z,2.01
2022-12-09T14:32:54.720Z,1.94
2022-12-09T14:35:46.616Z,1.88
2022-12-09T14:38:28.397Z,1.84
2022-12-09T14:41:15.790Z,1.78
2022-12-09T14:44:03.072Z,1.72
2022-12-09T14:46:36.191Z,1.65
2022-12-09T14:49:13.515Z,1.61
2022-12-09T14:51:54.231Z,1.53
2022-12-09T14:54:28.391Z,1.45
2022-12-09T14:56:59.695Z,1.39
2022-12-09T14:59:30.511Z,1.33
2022-12-09T15:01:59.942Z,1.25
2022-12-09T15:04:31.117Z,1.20
2022-12-09T15:07:16.137Z,1.11
2022-12-09T15:10:04.690Z,1.03
2022-12-09T15:12:43.631Z,0.97
2022-12-09T15:15:10.560Z,0.91
2022-12-09T15:17:56.914Z,0.83
2022-12-09T15:20:39.394Z,0.77
2022-12-09T15:23:17.655Z,0.71
2022-12-09T15:25:54.223Z,0.65
2022-12-09T15:28:26.561Z,0.60
2022-12-09T15:31:06.621Z,0.55
2022-12-09T15:33:49.437Z,0.46
2022-12-09T15:36:22.499Z,0.38
2022-12-09T15:39:07.155Z,0.33
2022-12-09T15:42:01.715Z,0.29
2022-12-09T15:44:33.301Z,0.21
2022-12-09T15:47:05.629Z,0.15
2022-12-09T15:49:45.691Z,0.08
2022-12-09T15:52:15.018Z,0.05
2022-12-09T15:54:44.934Z,-0.04
2022-12-09T15:57:15.851Z,-0.11
2022-12-09T15:59:50.920Z,-0.14
2022-12-09T16:02:26.710Z,-0.18
2022-12-09T16:04:55.345Z,-0.21
2022-12-09T16:07:25.472Z,-0.24
2022-12-09T16:10:01.630Z,-0.28
2022-12-09T16:12:32.775Z,-0.33
2022-12-09T16:14:59.485Z,-0.37
2022-12-09T16:17:29.552Z,-0.42
2022-12-09T16:19:56.344Z,-0.47
2022-12-09T16:22:28.288Z,-0.51
2022-12-09T16:25:14.084Z,-0.56
2022-12-09T16:27:46.494Z,-0.62
2022-12-09T16:30:16.255Z,-0.67
2022-12-09T16:32:46.179Z,-0.70
2022-12-09T16:35:18.710Z,-0.75
2022-12-09T16:37:58.063Z,-0.80
2022-12-09T16:40:24.562Z,-0.83
2022-12-09T16:43:15.739Z,-0.84
2022-12-09T16:45:50.704Z,-0.85
2022-12-09T16:48:19.320Z,-0.86
2022-12-09T16:50:48.741Z,-0.89
2022-12-09T16:53:18.197Z,-0.89
2022-12-09T16:55:56.881Z,-0.94
2022-12-09T16:58:23.863Z,-0.94
2022-12-09T17:00:50.940Z,-0.95
2022-12-09T17:03:21.762Z,-0.96
2022-12-09T17:05:48.400Z,-0.96
2022-12-09T17:08:15.302Z,-0.94
2022-12-09T17:10:42.341Z,-0.90
2022-12-09T17:13:12.366Z,-0.89
2022-12-09T17:15:41.533Z,-0.84
2022-12-09T17:18:09.648Z,-0.81
2022-12-09T17:20:37.740Z,-0.79
2022-12-09T17:23:05.609Z,-0.79
2022-12-09T17:25:33.222Z,-0.76
2022-12-09T17:28:02.636Z,-0.69
2022-12-09T17:30:29.579Z,-0.64
2022-12-09T17:32:59.135Z,-0.61
2022-12-09T17:35:25.863Z,-0.57
2022-12-09T17:37:53.038Z,-0.54
2022-12-09T17:40:19.626Z,-0.49
2022-12-09T17:42:46.813Z,-0.45
2022-12-09T17:45:13.447Z,-0.43
2022-12-09T17:47:40.695Z,-0.41
2022-12-09T17:50:07.670Z,-0.40
2022-12-09T17:52:35.703Z,-0.36
2022-12-09T17:55:02.338Z,-0.33
2022-12-09T17:57:29.281Z,-0.30
2022-12-09T17:59:56.534Z,-0.27
2022-12-09T18:02:23.698Z,-0.27
2022-12-09T18:04:50.852Z,-0.23
2022-12-09T18:07:17.596Z,-0.22
2022-12-09T18:09:47.523Z,-0.18
2022-12-09T18:12:16.511Z,-0.14
2022-12-09T18:14:43.698Z,-0.13
2022-12-09T18:17:10.275Z,-0.09
2022-12-09T18:19:38.094Z,-0.07
2022-12-09T18:22:04.728Z,-0.04
2022-12-09T18:24:33.683Z,-0.01
2022-12-09T18:27:00.307Z,0.00
2022-12-09T18:29:27.547Z,0.03
2022-12-09T18:31:57.410Z,0.08
2022-12-09T18:34:26.082Z,0.11
2022-12-09T18:36:52.759Z,0.11
2022-12-09T18:39:20.279Z,0.14
2022-12-09T18:41:47.553Z,0.17
2022-12-09T18:44:16.307Z,0.15
2022-12-09T18:46:48.582Z,0.15
2022-12-09T18:49:24.158Z,0.17
2022-12-09T18:51:52.623Z,0.16
2022-12-09T18:54:23.675Z,0.16
2022-12-09T18:56:51.326Z,0.16
2022-12-09T18:59:20.919Z,0.19
2022-12-09T19:01:48.476Z,0.21
2022-12-09T19:04:19.351Z,0.22
2022-12-09T19:06:48.146Z,0.23
2022-12-09T19:09:20.114Z,0.24
2022-12-09T19:11:49.389Z,0.26
2022-12-09T19:14:17.802Z,0.28
2022-12-09T19:16:45.689Z,0.27
2022-12-09T19:19:14.508Z,0.27
2022-12-09T19:21:42.293Z,0.29
2022-12-09T19:24:31.362Z,0.31
2022-12-09T19:26:58.638Z,0.29
2022-12-09T19:29:27.849Z,0.30
2022-12-09T19:31:57.429Z,0.30
2022-12-09T19:34:28.624Z,0.31
2022-12-09T19:36:58.587Z,0.30
2022-12-09T19:39:29.870Z,0.29
2022-12-09T19:42:01.535Z,0.28
2022-12-09T19:44:59.811Z,0.27
2022-12-09T19:47:15.692Z,0.25
2022-12-09T19:49:44.265Z,0.21
2022-12-09T19:52:16.051Z,0.18
2022-12-09T19:54:42.666Z,0.15
2022-12-09T19:57:09.554Z,0.11
2022-12-09T19:59:37.572Z,0.07
2022-12-09T20:02:06.711Z,0.06
2022-12-09T20:04:51.209Z,0.04
2022-12-09T20:07:20.290Z,-0.01
2022-12-09T20:09:47.417Z,-0.06
2022-12-09T20:12:14.794Z,-0.11
2022-12-09T20:14:41.948Z,-0.18
2022-12-09T20:17:09.211Z,-0.23
2022-12-09T20:19:36.645Z,-0.26
2022-12-09T20:22:04.685Z,-0.29
2022-12-09T20:24:31.288Z,-0.35
2022-12-09T20:26:58.801Z,-0.43
2022-12-09T20:29:25.441Z,-0.52
2022-12-09T20:31:53.493Z,-0.60
2022-12-09T20:34:20.105Z,-0.63
2022-12-09T20:36:47.499Z,-0.65
2022-12-09T20:39:20.244Z,-0.68
2022-12-09T20:41:49.058Z,-0.73
2022-12-09T20:44:16.749Z,-0.78
2022-12-09T20:46:50.091Z,-0.83
2022-12-09T20:49:17.301Z,-0.89
2022-12-09T20:51:45.567Z,-0.93
2022-12-09T20:54:12.876Z,-1.00
2022-12-09T20:56:40.728Z,-1.06
2022-12-09T20:59:09.929Z,-1.14
2022-12-09T21:01:38.466Z,-1.20
2022-12-09T21:04:06.779Z,-1.24
2022-12-09T21:06:37.167Z,-1.28
2022-12-09T21:09:06.666Z,-1.32
2022-12-09T21:11:34.339Z,-1.36
2022-12-09T21:14:03.467Z,-1.43
2022-12-09T21:16:32.826Z,-1.50
2022-12-09T21:19:02.504Z,-1.53
2022-12-09T21:21:31.894Z,-1.58
2022-12-09T21:24:00.499Z,-1.64
2022-12-09T21:26:27.843Z,-1.66
2022-12-09T21:28:55.066Z,-1.69
